Terminal Aerodrome Forecast
Issued by NWS Louisville, KY

Home | Current Version | Previous Version | Text Only | Print | Product List | Glossary On
Versions: 1 2 3 4 5 6 7 8 9 10 11 12 13 14 15 16 17 18
000
FTUS43 KLMK 201700
TAFBWG
TAF
KBWG 201720Z 2018/2118 20012KT P6SM SCT050
     FM202300 21005KT P6SM SCT250
     FM210900 22006KT P6SM SCT250 WS010/25030KT
     FM211300 25010KT P6SM BKN040=

USA.gov is the U.S. government's official web portal to all federal, state and local government web resources and services.